Montezuma, NM (87731)

4:42 AM MDT on August 01, 2014 (GMT -0600)
Las Vegas Municipal (KLVS) Elev 6877 ft | 35.65 °N, 105.14 °W | Change Station
Active Advisory: Flash Flood Watch

Current weather conditions updated 49 minutes ago

Overcast
Overcast
53 °F
Feels Like 53 °F
N
0
Wind Variable Wind from North

Today is forecast to be nearly the same temperature as yesterday. Scattered thunderstorms.

Today
High -- | Low -- °F
--% Chance of Precip.
Yesterday
High -- | Low -- °F
Precip. -- in
6:09 AM 8:05 PM
Waxing Crescent, 25% visible
Pressure 30.11 in
Visibility 10.0 miles
Clouds Overcast 6000 ft
Dew Point 51 °F
Humidity 93%
Rainfall 0.00 in
Snow Depth 2 in
UV 0 out of 12
Pollen 3.30 out of 12
Air Quality Not available.
Flu Activity Not available.
METAR KLVS 010953Z AUTO 00000KT 10SM OVC060 12/11 A3037 RMK AO2 SLP196 T01170106

More Conditions Fewer Conditions

Pressure 30.11 in
Visibility 10.0 miles
Clouds Overcast 6000 ft
Dew Point 51 °F
Humidity 93%
Rainfall 0.00 in
Snow Depth 2 in
UV 0 out of 12
Pollen 3.30 out of 12
Air Quality Not available.
Flu Activity Not available.
METAR KLVS 010953Z AUTO 00000KT 10SM OVC060 12/11 A3037 RMK AO2 SLP196 T01170106

More Conditions Fewer Conditions

10-Day Weather Forecast

Almanac

Astronomy

Aug. 01, 2014 Rise Set
Actual Time 6:09 AM MDT 8:05 PM MDT
Civil Twilight 5:41 AM MDT 8:33 PM MDT
Nautical Twilight 5:07 AM MDT 9:07 PM MDT
Astronomical Twilight 4:30 AM MDT 9:43 PM MDT
Moon 11:22 AM MDT 11:04 PM MDT
Length of Visible Light 14h 52m
Length of Day
13h 55m
Tomorrow will be 1m 42s shorter.
Waxing Crescent, 25% of the Moon is Illuminated
Today
Waxing Crescent
Aug 3
First Quarter
Aug 10
Full
Aug 17
Last Quarter
Aug 25
New

Today's Extremes

State Highs State Lows

Community

WunderPhotos

Upload Photos

1,739,534 photos uploaded!

Nearby

Snow Depth

Station Depth Elevation
Wesner Springs 2 in 11120 ft
Elk Cabin 111 in 8210 ft
Gallegos Peak 1 in 9800 ft
Tolby 0 in 10180 ft
Red River Pass #2 1 in 9850 ft

Earthquake Activity

City Distance Mag. Time & Date
No recent earthquake activity has been reported nearby.
Minimum magnitude displayed is 2.5.

Coastal Water Temperatures

Place Temperature
No Stations Reporting

Nearby Weather Stations

Station Location Temp. Windchill Dew Point Humidity Wind Precip. Elev Updated Type
San Geronimo, Las Vegas, NM 49.1 °F 49 °F 49 °F 99% North  at  0.0 mph 0.00 in / hr 6778 ft 4:42 AM MDT Rapid Fire
Ilfeld, NM 53.1 °F - 52 °F 96% West  at  0.0 mph 0.00 in / hr 6447 ft 4:42 AM MDT Rapid Fire
Pendaries RV Resort, Rociada, NM 45.5 °F 46 °F 45 °F 97% West  at  0.0 mph 0.00 in / hr 7750 ft 4:42 AM MDT Rapid Fire
RAWS BARTLEY NM, Rociada, NM 45 °F 45 °F 45 °F 100% NW  at  2 mph 0.00 in / hr 8338 ft 4:04 AM MDT MADIS

Show More Stations Show Fewer Stations